KVRB/VRB METAR and TAF weather

Enter ICAO airport designator
Station Type Date Time Source
KVRB METAR 2022/01/29 11:53 UTC NOAA

KVRB 291153Z 30008KT 10SM CLR 06/M02 A3009 RMK AO2 SLP189 T00561022 10144 20056 53027


Station Type Date Time Source
KVRB Decoded METAR 2022/01/29 11:53 UTC NOAA

VERO BEACH MUNICIPAL AIRPORT , FL, United States (KVRB) 27-39N 080-25W 10M
Jan 29, 2022 - 06:53 AM EST / 2022.01.29 1153 UTC
Wind: from the WNW (300 degrees) at 9 MPH (8 KT):0
Visibility: 10 mile(s):0
Sky conditions: clear
Temperature: 42.1 F (5.6 C)
Dew Point: 28.0 F (-2.2 C)
Relative Humidity: 57%
Pressure (altimeter): 30.09 in. Hg (1018 hPa)
Pressure tendency: 0.08 inches (2.7 hPa) higher than three hours ago
ob: KVRB 291153Z 30008KT 10SM CLR 06/M02 A3009 RMK AO2 SLP189 T00561022 10144 20056 53027
cycle: 12

Station Type Date Time Source
KVRB TAF 2022/01/29 12:22 UTC NOAA

TAF KVRB 291120Z 2912/3012 31017G26KT P6SM SKC
FM292300 31007KT P6SM SKC

Example: see airport list